Time;durP1;ratioP1;P1;durP2;ratioP2;P2;SDS_P1;SDS_P2;PMS_P1;PMS_P2;Temp;Humidity;BMP_temperature;BMP_pressure;BME280_temperature;BME280_humidity;BME280_pressure;Samples;Min_cycle;Max_cycle;Signal;HPM_P1;HPM_P2
2022/04/22 00:02:22;;;;;;;10.52;7.43;;;8.40;73.20;;;;;;5006696;28;20022;-86
2022/04/22 00:04:50;;;;;;;10.30;7.25;;;8.40;73.40;;;;;;4976898;28;20048;-86
2022/04/22 00:07:24;;;;;;;10.90;8.05;;;8.30;73.50;;;;;;4980053;28;20508;-87
2022/04/22 00:09:52;;;;;;;10.63;7.70;;;8.30;74.00;;;;;;4994451;28;20025;-86
2022/04/22 00:12:21;;;;;;;11.35;7.72;;;8.30;74.00;;;;;;4978073;28;20026;-86
2022/04/22 00:14:49;;;;;;;10.82;7.82;;;8.30;74.10;;;;;;4993093;28;20034;-85
2022/04/22 00:17:17;;;;;;;12.68;8.25;;;8.30;74.50;;;;;;5012676;28;20021;-85
2022/04/22 00:20:03;;;;;;;13.00;8.63;;;8.30;74.70;;;;;;4996907;28;20038;-86
2022/04/22 00:22:36;;;;;;;10.80;7.95;;;8.20;75.00;;;;;;4985985;28;20419;-86
2022/04/22 00:25:11;;;;;;;13.93;9.43;;;8.20;75.30;;;;;;4976452;28;20408;-86
2022/04/22 00:27:57;;;;;;;14.23;9.77;;;8.20;74.80;;;;;;4978174;28;20081;-86
2022/04/22 00:30:29;;;;;;;15.27;8.93;;;8.20;75.30;;;;;;4976773;28;20022;-87
2022/04/22 00:35:46;;;;;;;14.88;10.38;;;8.20;75.60;;;;;;5034989;22;20468;-83
2022/04/22 00:38:12;;;;;;;16.75;10.18;;;8.10;75.50;;;;;;5036667;28;20104;-83
2022/04/22 00:40:38;;;;;;;15.25;10.07;;;8.10;75.80;;;;;;5034304;28;20061;-83
2022/04/22 00:43:18;;;;;;;16.35;10.18;;;8.10;76.00;;;;;;5035166;28;20018;-83
2022/04/22 00:45:44;;;;;;;15.57;10.50;;;8.10;76.50;;;;;;5029186;28;20021;-82
2022/04/22 00:48:10;;;;;;;14.82;10.48;;;8.10;77.00;;;;;;5035225;28;20018;-83
2022/04/22 00:50:37;;;;;;;15.27;10.38;;;8.00;76.70;;;;;;5029848;28;20021;-83
2022/04/22 00:53:03;;;;;;;17.95;11.25;;;8.00;77.00;;;;;;5033479;28;20041;-84
2022/04/22 00:55:29;;;;;;;16.67;11.63;;;8.00;77.20;;;;;;5029390;28;20664;-84
2022/04/22 00:57:56;;;;;;;17.13;10.77;;;8.00;77.30;;;;;;5034402;28;20032;-83
2022/04/22 01:00:21;;;;;;;19.40;11.48;;;8.00;77.50;;;;;;5032165;28;20041;-80
2022/04/22 01:02:47;;;;;;;17.98;11.63;;;8.00;77.70;;;;;;5033668;28;20014;-83
2022/04/22 01:10:42;;;;;;;17.05;10.65;;;8.10;78.20;;;;;;5018309;28;20492;-83
2022/04/22 01:13:09;;;;;;;18.90;11.70;;;8.10;78.20;;;;;;5033543;28;20095;-82
2022/04/22 01:15:38;;;;;;;17.77;12.15;;;8.10;78.40;;;;;;5027305;28;20022;-85
2022/04/22 01:18:04;;;;;;;20.02;11.90;;;8.00;78.70;;;;;;5035543;28;20044;-84
2022/04/22 01:20:30;;;;;;;18.98;12.13;;;8.00;78.70;;;;;;5028450;28;20048;-81
2022/04/22 01:22:56;;;;;;;20.63;12.18;;;8.00;78.80;;;;;;5033327;28;20017;-83
2022/04/22 01:25:21;;;;;;;19.33;12.15;;;8.00;79.10;;;;;;5028163;28;20474;-84
2022/04/22 01:27:51;;;;;;;18.20;12.18;;;8.00;79.20;;;;;;5031743;28;20018;-84
2022/04/22 01:30:21;;;;;;;19.88;12.50;;;8.00;79.60;;;;;;5034694;28;20430;-83
2022/04/22 01:32:51;;;;;;;19.48;11.95;;;8.00;79.80;;;;;;5034511;28;20030;-83
2022/04/22 01:35:18;;;;;;;18.90;12.05;;;7.90;79.90;;;;;;5046251;28;20109;-84
2022/04/22 01:37:44;;;;;;;21.23;12.95;;;7.90;80.00;;;;;;5027346;28;20132;-84
2022/04/22 01:40:11;;;;;;;18.67;12.30;;;7.90;80.20;;;;;;5031335;28;20053;-84
2022/04/22 01:42:36;;;;;;;20.08;12.73;;;7.90;80.60;;;;;;5029027;28;20053;-81
2022/04/22 01:45:04;;;;;;;19.75;12.60;;;8.00;80.70;;;;;;5032127;28;20026;-84
2022/04/22 01:47:30;;;;;;;18.48;12.23;;;7.90;80.60;;;;;;5032280;28;20083;-84
2022/04/22 01:49:55;;;;;;;18.35;11.68;;;8.00;80.70;;;;;;5032135;28;20029;-84
2022/04/22 01:52:22;;;;;;;17.35;11.57;;;7.90;80.60;;;;;;5031823;28;20026;-82
2022/04/22 01:54:51;;;;;;;17.85;12.25;;;7.90;80.90;;;;;;5026867;28;20033;-84
2022/04/22 01:57:17;;;;;;;17.85;12.65;;;7.90;80.90;;;;;;5034768;28;20049;-84
2022/04/22 01:59:44;;;;;;;20.08;12.50;;;7.90;81.00;;;;;;5031371;28;20021;-84
2022/04/22 02:02:10;;;;;;;17.80;12.63;;;7.90;81.10;;;;;;5028352;28;20076;-84
2022/04/22 02:04:36;;;;;;;21.40;13.02;;;7.80;81.10;;;;;;5036072;28;20045;-81
2022/04/22 02:07:02;;;;;;;18.98;12.02;;;7.80;81.60;;;;;;5034596;28;20475;-83
2022/04/22 02:09:28;;;;;;;20.13;12.65;;;7.70;81.40;;;;;;5039020;28;20079;-84
2022/04/22 02:11:53;;;;;;;20.60;13.50;;;7.70;81.60;;;;;;5025643;28;20086;-82
2022/04/22 02:14:19;;;;;;;20.77;13.13;;;7.60;81.70;;;;;;5031428;28;20087;-81
2022/04/22 02:16:44;;;;;;;19.05;12.18;;;7.60;81.90;;;;;;5031735;28;20781;-84
2022/04/22 02:19:10;;;;;;;21.13;12.43;;;7.60;82.20;;;;;;5029306;28;20367;-84
2022/04/22 02:21:36;;;;;;;21.10;13.30;;;7.60;82.40;;;;;;5035478;28;20030;-84
2022/04/22 02:24:02;;;;;;;21.40;13.85;;;7.60;82.60;;;;;;5034609;28;20065;-83
2022/04/22 02:26:27;;;;;;;24.15;14.43;;;7.60;82.80;;;;;;5029932;28;20025;-80
2022/04/22 02:28:53;;;;;;;21.77;14.75;;;7.60;83.00;;;;;;5038822;28;20079;-84
2022/04/22 02:31:20;;;;;;;24.50;14.68;;;7.60;83.10;;;;;;5031797;28;20028;-84
2022/04/22 02:33:45;;;;;;;23.00;14.35;;;7.50;83.20;;;;;;5037044;28;20064;-83
2022/04/22 02:36:11;;;;;;;21.20;13.77;;;7.50;83.40;;;;;;5025875;28;20437;-84
2022/04/22 02:38:38;;;;;;;21.92;14.13;;;7.50;83.60;;;;;;5038508;28;20014;-83
2022/04/22 02:46:33;;;;;;;25.73;15.25;;;7.50;84.20;;;;;;5035626;28;20123;-84
2022/04/22 02:49:00;;;;;;;24.20;15.07;;;7.50;84.30;;;;;;5038779;28;20025;-84
2022/04/22 02:51:27;;;;;;;25.15;15.43;;;7.50;84.70;;;;;;5036599;28;20036;-84
2022/04/22 02:53:53;;;;;;;26.73;15.70;;;7.50;84.90;;;;;;5038527;28;20114;-81
2022/04/22 02:56:20;;;;;;;22.52;14.48;;;7.50;85.00;;;;;;5036076;28;20056;-81
2022/04/22 02:58:46;;;;;;;26.67;16.27;;;7.50;85.10;;;;;;5052798;28;20031;-84
2022/04/22 03:01:14;;;;;;;25.35;15.68;;;7.50;85.30;;;;;;5030148;28;20021;-84
2022/04/22 03:03:41;;;;;;;24.88;15.77;;;7.50;85.60;;;;;;5032843;28;20026;-83
2022/04/22 03:06:07;;;;;;;24.75;16.02;;;7.50;85.80;;;;;;5032466;28;20068;-81
2022/04/22 03:08:34;;;;;;;29.60;16.20;;;7.40;85.70;;;;;;5030437;28;20426;-84
2022/04/22 03:10:59;;;;;;;24.42;16.23;;;7.40;85.80;;;;;;5035849;28;20013;-84
2022/04/22 03:13:25;;;;;;;25.55;16.17;;;7.40;86.00;;;;;;5031740;28;20059;-81
2022/04/22 03:15:50;;;;;;;29.35;17.30;;;7.30;86.30;;;;;;5030658;28;20772;-84
2022/04/22 03:18:16;;;;;;;28.15;16.92;;;7.30;86.60;;;;;;5034924;28;20386;-84
2022/04/22 03:20:42;;;;;;;30.73;18.05;;;7.20;86.80;;;;;;5035068;28;20026;-83
2022/04/22 03:23:07;;;;;;;28.08;16.73;;;7.30;87.10;;;;;;5033761;28;20014;-82
2022/04/22 03:25:33;;;;;;;26.55;17.15;;;7.20;87.40;;;;;;5033772;28;20026;-81
2022/04/22 03:27:58;;;;;;;24.67;16.63;;;7.20;87.60;;;;;;5035508;28;20021;-82
2022/04/22 03:30:24;;;;;;;26.75;16.42;;;7.20;87.80;;;;;;5036701;28;20030;-82
2022/04/22 03:32:50;;;;;;;29.00;16.88;;;7.20;88.10;;;;;;5033608;28;20022;-82
2022/04/22 03:35:16;;;;;;;26.15;15.80;;;7.20;88.30;;;;;;5040510;28;20061;-82
2022/04/22 03:37:42;;;;;;;27.83;17.40;;;7.20;88.40;;;;;;5028061;28;20022;-82
2022/04/22 03:40:10;;;;;;;27.58;17.27;;;7.20;88.60;;;;;;5034749;28;20038;-84
2022/04/22 03:42:36;;;;;;;27.45;17.17;;;7.20;88.80;;;;;;5034015;28;20905;-83
2022/04/22 03:45:03;;;;;;;26.67;16.95;;;7.20;88.90;;;;;;5027955;28;20028;-81
2022/04/22 03:47:28;;;;;;;26.98;17.52;;;7.20;89.00;;;;;;5036254;28;20019;-82
2022/04/22 03:49:54;;;;;;;32.03;18.33;;;7.20;89.20;;;;;;5030230;28;20026;-83
2022/04/22 03:52:19;;;;;;;26.85;17.35;;;7.10;89.20;;;;;;5034594;28;20032;-81
2022/04/22 03:54:45;;;;;;;31.45;18.80;;;7.10;89.30;;;;;;5031359;28;20685;-84
2022/04/22 03:59:54;;;;;;;25.23;16.95;;;7.00;89.70;;;;;;5035043;28;20497;-84
2022/04/22 04:02:20;;;;;;;31.48;19.00;;;7.00;89.90;;;;;;5036876;28;20021;-82
2022/04/22 04:04:48;;;;;;;29.60;18.60;;;7.00;90.10;;;;;;5031645;28;20024;-80
2022/04/22 04:07:14;;;;;;;29.92;17.25;;;6.90;90.20;;;;;;5044285;28;20053;-82
2022/04/22 04:18:09;;;;;;;28.13;17.55;;;6.90;90.60;;;;;;4965741;28;20515;-80
2022/04/22 04:23:18;;;;;;;32.17;17.40;;;6.90;90.50;;;;;;5033298;28;20508;-81
2022/04/22 04:25:47;;;;;;;27.15;17.10;;;6.80;90.60;;;;;;5033710;28;20025;-80
2022/04/22 04:28:13;;;;;;;29.42;18.00;;;6.80;90.90;;;;;;5034840;28;20481;-82
2022/04/22 04:30:40;;;;;;;28.83;18.63;;;6.80;91.10;;;;;;5036952;28;20026;-83
2022/04/22 04:33:07;;;;;;;31.13;18.88;;;6.80;91.20;;;;;;5034316;28;20029;-83
2022/04/22 04:35:34;;;;;;;29.95;18.73;;;6.80;91.30;;;;;;5035652;28;20060;-81
2022/04/22 04:38:00;;;;;;;30.05;18.23;;;6.90;91.40;;;;;;5033709;28;20071;-85
2022/04/22 04:40:26;;;;;;;34.28;18.45;;;6.90;91.40;;;;;;5033427;28;20033;-84
2022/04/22 04:42:54;;;;;;;31.05;18.70;;;6.80;91.40;;;;;;5035665;28;20033;-83
2022/04/22 04:45:20;;;;;;;28.95;17.70;;;6.80;91.60;;;;;;5033603;28;20026;-84
2022/04/22 04:47:46;;;;;;;33.78;20.30;;;6.90;91.70;;;;;;5032692;28;20022;-85
2022/04/22 04:50:12;;;;;;;32.92;19.27;;;6.90;91.80;;;;;;5034140;28;20109;-83
2022/04/22 04:52:40;;;;;;;32.78;19.30;;;6.90;91.80;;;;;;5035700;28;20033;-84
2022/04/22 04:55:07;;;;;;;32.58;18.20;;;6.90;91.90;;;;;;5024704;28;20013;-84
2022/04/22 04:57:34;;;;;;;30.25;18.80;;;6.90;92.00;;;;;;5034557;28;20486;-84
2022/04/22 05:00:01;;;;;;;31.75;19.38;;;6.90;91.90;;;;;;5031716;28;20038;-84
2022/04/22 05:02:27;;;;;;;29.60;18.92;;;7.00;92.10;;;;;;5031927;28;20501;-81
2022/04/22 05:04:52;;;;;;;31.05;18.73;;;7.00;92.40;;;;;;5034383;28;20025;-80
2022/04/22 05:07:18;;;;;;;28.88;18.08;;;7.10;92.20;;;;;;5046211;28;20051;-84
2022/04/22 05:09:44;;;;;;;29.77;19.52;;;7.10;92.20;;;;;;5049959;28;20022;-81
2022/04/22 05:12:12;;;;;;;31.67;18.95;;;7.20;92.20;;;;;;5029794;28;20022;-84
2022/04/22 05:14:38;;;;;;;29.95;18.20;;;7.30;92.20;;;;;;5050813;28;20025;-82
2022/04/22 05:17:04;;;;;;;26.50;17.33;;;7.40;92.20;;;;;;5031873;28;20072;-84
2022/04/22 05:19:29;;;;;;;30.58;17.40;;;7.40;92.20;;;;;;5029206;28;20061;-84
2022/04/22 05:21:58;;;;;;;25.65;17.55;;;7.50;92.30;;;;;;5029151;28;20486;-84
2022/04/22 05:24:23;;;;;;;26.35;17.35;;;7.60;92.30;;;;;;5023192;28;20013;-84
2022/04/22 05:26:49;;;;;;;51.42;33.75;;;7.70;92.30;;;;;;5032892;28;20026;-81
2022/04/22 05:34:43;;;;;;;29.27;18.88;;;8.10;92.60;;;;;;5026688;28;20091;-84
2022/04/22 05:37:09;;;;;;;27.90;17.38;;;8.10;92.60;;;;;;5021610;28;20402;-82
2022/04/22 05:39:34;;;;;;;28.38;17.67;;;8.20;92.60;;;;;;5030339;28;20039;-86
2022/04/22 05:42:01;;;;;;;26.42;16.88;;;8.30;92.70;;;;;;5035176;28;20108;-85
2022/04/22 05:44:27;;;;;;;25.98;17.08;;;8.40;92.80;;;;;;5037662;28;20606;-82
2022/04/22 05:46:53;;;;;;;26.88;16.58;;;8.40;92.80;;;;;;5031896;28;20501;-84
2022/04/22 05:49:19;;;;;;;27.38;16.83;;;8.50;92.70;;;;;;5031219;28;20040;-83
2022/04/22 05:51:44;;;;;;;44.00;27.40;;;8.50;92.60;;;;;;5030700;28;20099;-86
2022/04/22 05:54:10;;;;;;;25.10;16.98;;;8.50;92.90;;;;;;5044837;28;20116;-86
2022/04/22 05:56:36;;;;;;;25.17;16.85;;;8.60;93.10;;;;;;5034087;28;20037;-85
2022/04/22 05:59:02;;;;;;;28.42;17.75;;;8.70;93.10;;;;;;5033375;28;20363;-86
2022/04/22 06:01:28;;;;;;;26.58;16.90;;;8.70;93.10;;;;;;5037329;28;20168;-86
2022/04/22 06:03:53;;;;;;;25.15;16.13;;;8.80;93.00;;;;;;5030751;28;20030;-81
2022/04/22 06:06:19;;;;;;;24.20;15.85;;;8.80;92.90;;;;;;5037058;28;20037;-81
2022/04/22 06:11:29;;;;;;;26.63;16.20;;;8.90;92.80;;;;;;5031798;28;20077;-86
2022/04/22 06:13:55;;;;;;;24.13;15.70;;;9.00;92.70;;;;;;5031977;28;20021;-85
2022/04/22 06:16:21;;;;;;;26.23;16.23;;;9.00;92.80;;;;;;5050136;28;20044;-86
2022/04/22 06:18:47;;;;;;;28.00;16.58;;;9.10;92.80;;;;;;5029672;28;20026;-86
2022/04/22 06:21:12;;;;;;;24.33;15.43;;;9.10;92.90;;;;;;5035720;28;20060;-86
2022/04/22 06:23:38;;;;;;;23.58;14.82;;;9.20;92.80;;;;;;5030938;28;20041;-84
2022/04/22 06:26:04;;;;;;;22.48;14.68;;;9.20;92.80;;;;;;5032936;28;20021;-84
2022/04/22 06:28:30;;;;;;;27.00;15.27;;;9.20;92.70;;;;;;5035175;28;20036;-81
2022/04/22 06:30:56;;;;;;;24.48;14.52;;;9.20;92.70;;;;;;5030060;28;20035;-80
2022/04/22 06:33:22;;;;;;;20.88;13.35;;;9.30;92.70;;;;;;5034556;28;20017;-84
2022/04/22 06:35:48;;;;;;;20.15;13.48;;;9.40;92.50;;;;;;5028446;28;20034;-84
2022/04/22 06:38:15;;;;;;;21.95;13.52;;;9.50;92.40;;;;;;5020054;28;20649;-84
2022/04/22 06:46:10;;;;;;;20.00;13.93;;;9.80;92.10;;;;;;5028873;28;20157;-84
2022/04/22 06:48:36;;;;;;;22.85;13.77;;;10.00;92.00;;;;;;5030552;28;20535;-85
2022/04/22 06:51:05;;;;;;;20.70;12.57;;;10.20;91.80;;;;;;5030612;28;20033;-85
2022/04/22 06:53:30;;;;;;;19.50;12.90;;;10.30;91.60;;;;;;5038165;28;20097;-85
2022/04/22 06:55:59;;;;;;;17.23;12.15;;;10.50;91.50;;;;;;5031100;28;20049;-84
2022/04/22 06:58:26;;;;;;;19.60;12.93;;;10.70;91.30;;;;;;5030115;28;20045;-84
2022/04/22 07:00:52;;;;;;;20.48;12.50;;;10.80;91.20;;;;;;5027648;28;20092;-86
2022/04/22 07:03:18;;;;;;;19.38;12.13;;;10.90;90.90;;;;;;5030308;28;20264;-85
2022/04/22 07:05:49;;;;;;;19.60;12.02;;;11.10;90.60;;;;;;5028508;28;20112;-85
2022/04/22 07:08:17;;;;;;;19.13;12.20;;;11.30;90.50;;;;;;5036695;28;20117;-84
2022/04/22 07:10:45;;;;;;;18.25;11.68;;;11.40;90.30;;;;;;5036295;28;20018;-85
2022/04/22 07:13:11;;;;;;;17.80;12.23;;;11.70;90.00;;;;;;5035964;28;20041;-86
2022/04/22 07:15:39;;;;;;;15.88;11.57;;;11.90;89.30;;;;;;5031741;28;20045;-82
2022/04/22 07:18:05;;;;;;;15.35;11.73;;;12.00;88.60;;;;;;5021745;28;20021;-84
2022/04/22 07:20:31;;;;;;;15.80;11.13;;;12.30;88.70;;;;;;5026444;28;20071;-83
2022/04/22 07:22:59;;;;;;;16.63;11.75;;;12.50;88.10;;;;;;5027630;28;20033;-84
2022/04/22 07:25:26;;;;;;;15.90;11.05;;;12.80;87.70;;;;;;5028670;28;20028;-85
2022/04/22 07:27:52;;;;;;;15.70;10.98;;;13.10;86.80;;;;;;5027839;28;20091;-83
2022/04/22 07:30:20;;;;;;;15.82;10.50;;;13.40;85.80;;;;;;5030944;28;20397;-82
2022/04/22 07:32:48;;;;;;;14.05;10.88;;;13.60;84.90;;;;;;5030050;28;20032;-83
2022/04/22 07:35:16;;;;;;;15.88;10.82;;;14.00;84.20;;;;;;5031679;28;20676;-85
2022/04/22 07:37:43;;;;;;;15.15;11.05;;;14.20;83.00;;;;;;5026258;28;20024;-84
2022/04/22 07:40:09;;;;;;;16.52;11.25;;;14.40;82.70;;;;;;5028307;28;20505;-83
2022/04/22 07:42:36;;;;;;;13.88;10.27;;;14.70;82.00;;;;;;5034324;28;20036;-86
2022/04/22 07:47:51;;;;;;;14.70;10.55;;;15.30;80.10;;;;;;5032254;28;20036;-85
2022/04/22 07:50:18;;;;;;;12.82;9.60;;;15.50;79.60;;;;;;5030422;28;20182;-83
2022/04/22 07:52:45;;;;;;;12.00;9.85;;;15.70;78.40;;;;;;5029965;28;20063;-84
2022/04/22 07:55:13;;;;;;;14.23;10.02;;;15.90;77.60;;;;;;5033075;28;20048;-83
2022/04/22 07:57:42;;;;;;;14.85;10.30;;;16.10;76.80;;;;;;5036557;28;20104;-87
2022/04/22 08:00:11;;;;;;;14.85;9.77;;;16.40;76.70;;;;;;5036037;28;20030;-83
2022/04/22 08:02:42;;;;;;;15.15;10.13;;;16.60;75.90;;;;;;5031260;28;20036;-86
2022/04/22 08:05:13;;;;;;;12.82;8.85;;;16.90;75.10;;;;;;5035681;28;20021;-87
2022/04/22 08:07:40;;;;;;;12.13;9.15;;;17.10;74.30;;;;;;5029525;28;20075;-84
2022/04/22 08:10:06;;;;;;;12.10;9.43;;;17.30;73.60;;;;;;5019808;28;20571;-86
2022/04/22 08:12:33;;;;;;;12.35;9.63;;;17.40;72.60;;;;;;5028143;28;20482;-87
2022/04/22 08:14:59;;;;;;;12.32;10.20;;;17.60;71.90;;;;;;5035436;28;20024;-83
2022/04/22 08:17:25;;;;;;;12.32;9.07;;;17.70;70.80;;;;;;5033372;28;20401;-84
2022/04/22 08:19:51;;;;;;;13.95;9.80;;;17.80;70.30;;;;;;5035429;28;20029;-83
2022/04/22 08:22:17;;;;;;;12.77;9.57;;;17.90;69.80;;;;;;5042319;28;20047;-86
2022/04/22 08:24:43;;;;;;;13.05;9.63;;;18.10;69.50;;;;;;5033877;28;20041;-84
2022/04/22 08:27:10;;;;;;;15.80;9.70;;;18.40;68.80;;;;;;5034437;28;20048;-82
2022/04/22 08:29:37;;;;;;;14.18;9.68;;;18.60;68.30;;;;;;5031138;28;20030;-86
2022/04/22 08:32:03;;;;;;;11.98;9.60;;;18.80;67.30;;;;;;5035546;28;20059;-84
2022/04/22 08:34:29;;;;;;;12.23;9.40;;;19.00;66.60;;;;;;5030289;23;20053;-88
2022/04/22 08:36:55;;;;;;;13.20;8.90;;;19.20;66.40;;;;;;4972695;28;20023;-87
2022/04/22 08:39:20;;;;;;;13.00;9.35;;;19.40;65.70;;;;;;4992540;28;20018;-89
2022/04/22 08:41:48;;;;;;;11.52;9.23;;;19.70;65.10;;;;;;4971191;28;20106;-92
2022/04/22 08:44:14;;;;;;;13.20;9.68;;;20.00;65.00;;;;;;4960961;28;20027;-89
2022/04/22 08:52:11;;;;;;;11.20;9.35;;;21.00;62.00;;;;;;4971075;28;20033;-90
2022/04/22 08:54:42;;;;;;;16.13;10.02;;;21.10;61.30;;;;;;4955339;28;20029;-90
2022/04/22 08:57:07;;;;;;;13.40;9.35;;;21.30;60.80;;;;;;4954657;28;20041;-89
2022/04/22 08:59:33;;;;;;;10.98;9.13;;;21.50;60.90;;;;;;4956282;28;20476;-89
2022/04/22 09:01:58;;;;;;;13.82;9.45;;;21.70;60.00;;;;;;4954262;28;20034;-91
2022/04/22 09:04:26;;;;;;;12.32;10.07;;;21.90;59.00;;;;;;4955413;28;20027;-90
2022/04/22 09:06:53;;;;;;;14.48;10.05;;;22.00;58.20;;;;;;4955622;28;20033;-90
2022/04/22 09:09:19;;;;;;;14.85;10.27;;;22.20;57.70;;;;;;4954595;28;20121;-89
2022/04/22 09:11:44;;;;;;;12.65;9.77;;;22.50;57.00;;;;;;4954979;28;20102;-89
2022/04/22 09:14:14;;;;;;;13.82;10.13;;;22.80;56.10;;;;;;4957470;28;20448;-88
2022/04/22 09:16:41;;;;;;;12.38;9.77;;;23.10;55.10;;;;;;4960255;28;20030;-89
2022/04/22 09:19:06;;;;;;;10.55;9.23;;;23.40;53.90;;;;;;4960701;28;20031;-88
2022/04/22 09:21:32;;;;;;;14.63;9.75;;;23.80;53.60;;;;;;4960140;28;20117;-89
2022/04/22 09:24:11;;;;;;;12.90;9.93;;;24.40;52.20;;;;;;4958747;28;20019;-89
2022/04/22 09:26:36;;;;;;;12.13;10.00;;;25.00;50.40;;;;;;4970391;28;20082;-89
2022/04/22 09:29:10;;;;;;;13.48;10.07;;;25.40;49.70;;;;;;4971566;28;20158;-89
2022/04/22 09:31:49;;;;;;;11.82;9.70;;;25.90;48.90;;;;;;4977131;28;20027;-90
2022/04/22 09:34:15;;;;;;;12.98;9.13;;;26.50;47.60;;;;;;4957188;28;20026;-89
2022/04/22 09:45:06;;;;;;;;;;;28.30;44.70;;;;;;4985937;28;20037;-88
2022/04/22 09:47:34;;;;;;;12.02;9.18;;;28.70;45.40;;;;;;4972124;28;19914;-91
2022/04/22 09:50:01;;;;;;;10.77;8.80;;;29.10;44.20;;;;;;4963365;28;20067;-92
2022/04/22 09:52:34;;;;;;;13.00;9.27;;;29.40;44.00;;;;;;4987960;28;20027;-92
2022/04/22 09:55:07;;;;;;;13.52;9.23;;;29.70;42.80;;;;;;4959754;28;20038;-91
2022/04/22 09:57:54;;;;;;;13.30;9.60;;;29.70;42.30;;;;;;4966279;28;20027;-91
2022/04/22 10:00:27;;;;;;;10.90;9.73;;;29.90;42.30;;;;;;4960209;28;20027;-91
2022/04/22 10:02:54;;;;;;;11.75;9.70;;;29.90;42.10;;;;;;4958932;28;20046;-92
2022/04/22 10:05:22;;;;;;;11.43;9.38;;;29.90;41.90;;;;;;4960374;28;20031;-92
2022/04/22 10:07:52;;;;;;;12.30;9.20;;;30.00;41.50;;;;;;4963162;28;20024;-91
2022/04/22 10:10:23;;;;;;;11.35;9.38;;;29.90;41.10;;;;;;4970370;28;20038;-92
2022/04/22 10:12:52;;;;;;;11.88;8.65;;;29.60;41.10;;;;;;4971348;28;20062;-92
2022/04/22 10:15:20;;;;;;;13.25;8.80;;;29.50;40.90;;;;;;4967059;28;20034;-92
2022/04/22 10:17:49;;;;;;;10.63;8.55;;;29.50;40.70;;;;;;4959483;28;20031;-91
2022/04/22 10:20:15;;;;;;;10.55;9.20;;;29.90;40.40;;;;;;4960199;28;20054;-92
2022/04/22 10:22:41;;;;;;;10.95;9.73;;;30.30;40.20;;;;;;4970085;28;20464;-93
2022/04/22 10:25:09;;;;;;;10.68;9.27;;;30.50;39.80;;;;;;4959202;28;20105;-92
2022/04/22 10:27:42;;;;;;;12.18;8.98;;;30.50;39.60;;;;;;4961832;28;20090;-92
2022/04/22 10:30:11;;;;;;;19.48;12.27;;;30.40;39.60;;;;;;4957553;28;20090;-91
2022/04/22 10:32:40;;;;;;;11.18;9.40;;;30.30;39.60;;;;;;4960750;28;20066;-92
2022/04/22 10:35:07;;;;;;;12.18;9.05;;;30.10;39.40;;;;;;4955627;28;20030;-92
2022/04/22 10:37:34;;;;;;;12.60;8.48;;;29.90;39.70;;;;;;4960966;28;20056;-92
2022/04/22 10:40:02;;;;;;;11.02;9.40;;;29.60;40.00;;;;;;4970269;28;20038;-92
2022/04/22 10:42:38;;;;;;;17.52;9.10;;;29.40;40.10;;;;;;4971451;28;20391;-92
2022/04/22 10:47:50;;;;;;;14.25;9.82;;;28.70;41.00;;;;;;4993413;28;20094;-92
2022/04/22 10:50:39;;;;;;;13.82;9.82;;;28.20;41.70;;;;;;4959953;28;20503;-92
2022/04/22 10:53:26;;;;;;;11.57;9.20;;;27.70;42.70;;;;;;4966630;28;20450;-91
2022/04/22 10:55:52;;;;;;;12.70;10.20;;;27.20;43.00;;;;;;4961562;28;20057;-92
2022/04/22 10:58:21;;;;;;;13.67;9.43;;;26.70;42.80;;;;;;4982669;28;20090;-91
2022/04/22 11:00:49;;;;;;;11.63;9.07;;;26.40;43.30;;;;;;4980130;28;20039;-92
2022/04/22 11:03:19;;;;;;;14.27;9.43;;;26.10;43.50;;;;;;4990172;28;20085;-93
2022/04/22 11:05:58;;;;;;;10.65;8.68;;;25.90;43.80;;;;;;4983287;28;20101;-92
2022/04/22 11:08:25;;;;;;;10.73;8.77;;;25.50;43.60;;;;;;4960439;28;20043;-92
2022/04/22 11:10:53;;;;;;;15.18;9.00;;;25.20;43.70;;;;;;4961633;28;20046;-93
2022/04/22 11:13:32;;;;;;;11.57;9.43;;;24.80;44.10;;;;;;4962611;28;20106;-92
2022/04/22 11:15:58;;;;;;;13.73;9.90;;;24.40;44.30;;;;;;4960674;28;20054;-92
2022/04/22 11:18:24;;;;;;;14.07;9.10;;;24.20;45.10;;;;;;4959904;28;20031;-92
2022/04/22 11:20:52;;;;;;;11.45;9.50;;;24.10;45.40;;;;;;4959902;28;20026;-91
2022/04/22 11:23:18;;;;;;;11.02;8.60;;;24.10;45.30;;;;;;4959745;28;20495;-93
2022/04/22 11:25:46;;;;;;;12.65;7.75;;;24.00;45.20;;;;;;4959761;28;20034;-92
2022/04/22 11:28:13;;;;;;;10.50;7.88;;;23.80;45.10;;;;;;4961366;28;20026;-93
2022/04/22 11:30:39;;;;;;;10.70;8.10;;;23.60;45.00;;;;;;4959413;28;20023;-92
2022/04/22 11:33:26;;;;;;;10.00;8.02;;;23.50;45.20;;;;;;4959867;28;20526;-92
2022/04/22 11:35:59;;;;;;;11.23;9.15;;;23.30;45.60;;;;;;4959330;28;20039;-92
2022/04/22 11:38:26;;;;;;;10.73;8.20;;;23.30;46.00;;;;;;4979750;28;20125;-93
2022/04/22 11:40:54;;;;;;;9.80;8.15;;;23.30;45.90;;;;;;4981366;28;20061;-93
2022/04/22 11:43:21;;;;;;;10.65;8.52;;;23.20;45.70;;;;;;4979447;28;20030;-92
2022/04/22 11:45:49;;;;;;;9.00;8.07;;;23.10;45.70;;;;;;4963925;28;20045;-91
2022/04/22 11:48:23;;;;;;;11.40;8.43;;;23.10;45.80;;;;;;4973515;28;20046;-92
2022/04/22 11:50:49;;;;;;;10.35;7.85;;;23.00;45.60;;;;;;4951163;29;20079;-91
2022/04/22 11:53:17;;;;;;;12.50;9.27;;;22.90;46.20;;;;;;4976043;28;20431;-92
2022/04/22 11:55:47;;;;;;;10.32;8.43;;;22.80;46.70;;;;;;4957319;28;20035;-92
2022/04/22 11:58:16;;;;;;;9.15;8.20;;;22.80;46.10;;;;;;4964565;28;20031;-92
2022/04/22 12:06:22;;;;;;;11.73;8.30;;;22.80;46.40;;;;;;4998377;28;20451;-92
2022/04/22 12:09:00;;;;;;;10.65;8.07;;;22.70;46.40;;;;;;4965400;28;20266;-92
2022/04/22 12:11:26;;;;;;;12.25;8.05;;;22.70;46.20;;;;;;4974174;28;20030;-92
2022/04/22 12:13:53;;;;;;;10.02;7.82;;;22.60;46.20;;;;;;4993252;28;20027;-91
2022/04/22 12:16:28;;;;;;;11.00;7.60;;;22.60;46.30;;;;;;4979789;28;20073;-92
2022/04/22 12:18:55;;;;;;;10.57;7.65;;;22.40;46.20;;;;;;4967692;28;20034;-91
2022/04/22 12:21:22;;;;;;;14.30;7.57;;;22.20;46.10;;;;;;4961898;28;20030;-92
2022/04/22 12:23:51;;;;;;;9.88;7.22;;;22.00;46.20;;;;;;4961175;28;20027;-91
2022/04/22 12:26:30;;;;;;;8.38;6.25;;;22.00;46.30;;;;;;4973339;28;20447;-91
2022/04/22 12:29:18;;;;;;;7.85;6.43;;;22.00;46.40;;;;;;4960969;28;20086;-92
2022/04/22 12:31:46;;;;;;;8.57;6.28;;;22.00;46.90;;;;;;4971904;28;20073;-91
2022/04/22 12:34:14;;;;;;;11.05;7.18;;;22.00;46.20;;;;;;4962255;28;20031;-92
2022/04/22 12:36:52;;;;;;;9.48;6.25;;;22.00;46.10;;;;;;4964165;28;20039;-92
2022/04/22 12:39:46;;;;;;;13.45;6.70;;;22.00;46.20;;;;;;4961590;28;20034;-92
2022/04/22 12:42:15;;;;;;;15.43;7.47;;;22.00;46.40;;;;;;4965974;28;20035;-92
2022/04/22 12:52:07;;;;;;;8.73;6.97;;;22.20;46.30;;;;;;4962596;28;20027;-91
2022/04/22 12:52:56;;;;;;;12.35;5.28;;;22.30;45.50;;;;;;4978406;28;20046;-92
2022/04/22 12:55:22;;;;;;;10.32;6.60;;;22.20;45.50;;;;;;4957412;28;20028;-92
2022/04/22 12:58:03;;;;;;;9.50;6.38;;;22.10;45.60;;;;;;4942358;29;20162;-92
2022/04/22 13:00:33;;;;;;;10.45;7.00;;;22.00;45.80;;;;;;4946338;29;20118;-91
2022/04/22 13:03:03;;;;;;;8.98;6.95;;;22.10;46.10;;;;;;4977116;28;20033;-90
2022/04/22 13:05:39;;;;;;;13.27;7.72;;;22.20;46.10;;;;;;4986124;28;20029;-91
2022/04/22 13:08:15;;;;;;;7.97;5.22;;;22.20;46.30;;;;;;4975871;28;20019;-92
2022/04/22 13:10:44;;;;;;;8.20;5.72;;;21.90;45.80;;;;;;4963238;28;20027;-92
2022/04/22 13:13:12;;;;;;;10.43;6.00;;;21.80;46.00;;;;;;4962034;28;20042;-93
2022/04/22 13:15:38;;;;;;;9.60;5.57;;;21.80;46.20;;;;;;4959266;28;20082;-92
2022/04/22 13:18:03;;;;;;;10.30;4.95;;;21.80;46.30;;;;;;4960643;28;20015;-92
2022/04/22 13:20:30;;;;;;;7.55;5.25;;;21.80;46.40;;;;;;4958827;28;20040;-93
2022/04/22 13:22:56;;;;;;;7.15;5.45;;;21.70;46.20;;;;;;4962213;28;20019;-92
2022/04/22 13:25:23;;;;;;;8.57;5.28;;;21.60;45.80;;;;;;4961561;28;20037;-93
2022/04/22 13:27:51;;;;;;;8.27;5.13;;;21.40;46.00;;;;;;4963865;28;20027;-92
2022/04/22 13:30:18;;;;;;;12.80;5.55;;;21.40;46.10;;;;;;4978197;28;20027;-92
2022/04/22 13:32:50;;;;;;;5.43;4.93;;;21.20;46.00;;;;;;4978313;28;20027;-91
2022/04/22 13:35:17;;;;;;;7.72;4.70;;;21.10;46.00;;;;;;4980434;28;20181;-91
2022/04/22 13:37:42;;;;;;;7.75;5.65;;;21.00;46.00;;;;;;4983357;28;20023;-91
2022/04/22 13:40:09;;;;;;;7.53;5.38;;;21.00;46.10;;;;;;4978325;28;20030;-92
2022/04/22 13:42:35;;;;;;;7.50;6.07;;;20.90;46.20;;;;;;4980530;28;20044;-92
2022/04/22 13:53:38;;;;;;;6.50;5.80;;;20.60;46.50;;;;;;4984196;28;20041;-90
2022/04/22 13:56:27;;;;;;;6.55;5.20;;;20.50;46.80;;;;;;4962251;28;20380;-92
2022/04/22 13:58:53;;;;;;;4.93;4.20;;;20.50;46.90;;;;;;4962551;28;20027;-92
2022/04/22 14:01:22;;;;;;;5.97;5.05;;;20.50;47.10;;;;;;4964890;28;20027;-91
2022/04/22 14:03:47;;;;;;;6.50;5.20;;;20.40;47.20;;;;;;4968919;28;20025;-92